Time;durP1;ratioP1;P1;durP2;ratioP2;P2;SDS_P1;SDS_P2;PMS_P1;PMS_P2;Temp;Humidity;BMP_temperature;BMP_pressure;BME280_temperature;BME280_humidity;BME280_pressure;Samples;Min_cycle;Max_cycle;Signal;HPM_P1;HPM_P2
2021/01/15 00:01:23;;;;;;;1999.90;999.90;;;;;;;-2.65;92.44;99988.88;1804805;77;21109;-69
2021/01/15 00:03:51;;;;;;;1999.90;999.90;;;;;;;-2.66;92.33;99988.58;1804829;77;21279;-68
2021/01/15 00:06:22;;;;;;;1999.90;999.90;;;;;;;-2.70;92.22;99993.64;1770021;80;21229;-69
2021/01/15 00:08:58;;;;;;;1999.90;999.90;;;;;;;-2.68;92.23;99990.17;1868773;75;28818;-68
2021/01/15 00:11:32;;;;;;;1999.90;999.90;;;;;;;-2.75;92.22;99986.75;1851901;77;20901;-69
2021/01/15 00:14:01;;;;;;;1999.90;999.90;;;;;;;-2.72;92.40;99988.99;1825819;78;21200;-70
2021/01/15 00:16:31;;;;;;;1999.90;999.90;;;;;;;-2.74;92.28;99978.92;1789325;80;21020;-69
2021/01/15 00:19:01;;;;;;;1999.90;999.90;;;;;;;-2.78;92.20;99982.34;1775973;80;21005;-68
2021/01/15 00:21:34;;;;;;;1999.90;999.90;;;;;;;-2.78;92.32;99978.28;1780374;80;20978;-69
2021/01/15 00:24:04;;;;;;;1999.90;999.90;;;;;;;-2.79;92.35;99973.92;1774530;80;20961;-69
2021/01/15 00:26:32;;;;;;;1999.90;999.90;;;;;;;-2.76;92.45;99962.61;1775663;80;21384;-69
2021/01/15 00:29:00;;;;;;;1999.90;999.90;;;;;;;-2.73;92.48;99955.37;1775667;80;20993;-71
2021/01/15 00:31:33;;;;;;;1999.90;999.90;;;;;;;-2.71;92.43;99952.72;1780379;80;20977;-69
2021/01/15 00:34:01;;;;;;;1999.90;999.90;;;;;;;-2.72;92.39;99943.48;1776252;80;20966;-69
2021/01/15 00:36:30;;;;;;;1999.90;999.90;;;;;;;-2.70;92.45;99929.99;1779556;80;21064;-69
2021/01/15 00:38:57;;;;;;;1999.90;999.90;;;;;;;-2.68;92.43;99918.39;1776533;80;21283;-69
2021/01/15 00:41:26;;;;;;;1999.90;999.90;;;;;;;-2.67;92.42;99904.31;1777049;80;20985;-69
2021/01/15 00:43:54;;;;;;;1999.90;999.90;;;;;;;-2.65;92.40;99915.73;1769433;80;20993;-70
2021/01/15 00:49:04;;;;;;;1999.90;999.90;;;;;;;-2.75;92.14;99949.37;1876600;75;28167;-68
2021/01/15 00:51:32;;;;;;;1999.90;999.90;;;;;;;-2.86;92.28;99950.19;1855652;77;20929;-68
2021/01/15 00:54:00;;;;;;;1999.90;999.90;;;;;;;-2.95;92.49;99948.37;1789512;78;21781;-68
2021/01/15 00:56:28;;;;;;;1999.90;999.90;;;;;;;-3.01;92.71;99937.95;1803054;78;20960;-68
2021/01/15 00:58:56;;;;;;;1999.90;999.90;;;;;;;-3.03;92.96;99925.17;1788019;79;21005;-68
2021/01/15 01:01:26;;;;;;;1999.90;999.90;;;;;;;-2.98;93.20;99921.77;1804397;78;20972;-66
2021/01/15 01:03:54;;;;;;;1999.90;999.90;;;;;;;-2.95;93.29;99920.77;1804243;78;21099;-68
2021/01/15 01:06:22;;;;;;;1999.90;999.90;;;;;;;-2.92;93.35;99919.47;1784551;79;22070;-69
2021/01/15 01:08:50;;;;;;;1999.90;999.90;;;;;;;-2.93;93.36;99936.24;1806495;78;20953;-70
2021/01/15 01:11:20;;;;;;;1999.90;999.90;;;;;;;-2.92;93.46;99932.48;1783911;79;21161;-69
2021/01/15 01:13:50;;;;;;;1999.90;999.90;;;;;;;-2.89;93.54;99923.59;1785380;80;20977;-69
2021/01/15 01:16:19;;;;;;;1999.90;999.90;;;;;;;-2.85;93.55;99932.36;1803885;78;21271;-69
2021/01/15 01:18:47;;;;;;;1999.90;999.90;;;;;;;-2.82;93.60;99914.28;1810423;78;21205;-69
2021/01/15 01:21:15;;;;;;;1999.90;999.90;;;;;;;-2.77;93.59;99918.45;1811937;78;21578;-69
2021/01/15 01:23:42;;;;;;;1999.90;999.90;;;;;;;-2.76;93.53;99916.05;1801628;78;21131;-69
2021/01/15 01:26:12;;;;;;;1999.90;999.90;;;;;;;-2.75;93.42;99927.17;1795551;78;21020;-70
2021/01/15 01:28:48;;;;;;;1999.90;999.90;;;;;;;-2.70;93.39;99927.81;1825899;76;28161;-68
2021/01/15 01:31:17;;;;;;;1999.90;999.90;;;;;;;-2.72;93.41;99935.35;1803753;79;20984;-67
2021/01/15 01:33:45;;;;;;;1999.90;999.90;;;;;;;-2.68;93.44;99937.34;1808845;79;21332;-68
2021/01/15 01:36:13;;;;;;;1999.90;999.90;;;;;;;-2.66;93.31;99933.88;1812760;79;21515;-70
2021/01/15 01:38:42;;;;;;;1999.90;999.90;;;;;;;-2.66;93.25;99937.11;1804841;79;21317;-70
2021/01/15 01:41:10;;;;;;;1999.90;999.90;;;;;;;-2.65;93.25;99927.92;1808073;79;20985;-69
2021/01/15 01:43:38;;;;;;;1999.90;999.90;;;;;;;-2.62;93.29;99918.80;1801170;77;20941;-70
2021/01/15 01:46:07;;;;;;;1999.90;999.90;;;;;;;-2.56;93.32;99920.25;1799679;79;21375;-69
2021/01/15 01:48:35;;;;;;;1999.90;999.90;;;;;;;-2.55;93.09;99915.13;1804240;79;20983;-68
2021/01/15 01:51:04;;;;;;;1999.90;999.90;;;;;;;-2.58;92.91;99915.08;1781544;79;21565;-69
2021/01/15 01:53:32;;;;;;;1999.90;999.90;;;;;;;-2.59;92.86;99920.20;1809067;79;21423;-68
2021/01/15 01:56:03;;;;;;;1999.90;999.90;;;;;;;-2.58;92.94;99916.96;1802678;79;20985;-70
2021/01/15 01:58:32;;;;;;;1999.90;999.90;;;;;;;-2.58;92.94;99917.78;1805421;79;21749;-70
2021/01/15 02:01:05;;;;;;;1999.90;999.90;;;;;;;-2.59;92.90;99914.78;1815129;79;21550;-70
2021/01/15 02:03:34;;;;;;;1999.90;999.90;;;;;;;-2.58;92.81;99931.86;1802224;79;21547;-70
2021/01/15 02:06:04;;;;;;;1999.90;999.90;;;;;;;-2.61;92.66;99932.63;1805730;77;21126;-69
2021/01/15 02:08:40;;;;;;;1999.90;999.90;;;;;;;-2.56;92.70;99928.38;1874747;75;28181;-68
2021/01/15 02:11:31;;;;;;;1999.90;999.90;;;;;;;-2.56;92.75;99931.92;1848764;77;20969;-70
2021/01/15 02:14:18;;;;;;;1999.90;999.90;;;;;;;-2.47;92.68;99924.25;1863810;75;27827;-71
2021/01/15 02:16:48;;;;;;;1999.90;999.90;;;;;;;-2.45;92.46;99928.89;1845975;76;20936;-71
2021/01/15 02:19:42;;;;;;;1999.90;999.90;;;;;;;-2.44;92.25;99927.30;1790305;77;21609;-67
2021/01/15 02:22:43;;;;;;;1999.90;999.90;;;;;;;-2.44;92.28;99934.08;1750045;81;21630;-69
2021/01/15 02:25:29;;;;;;;1999.90;999.90;;;;;;;-2.42;92.43;99932.48;1806863;76;27941;-67
2021/01/15 02:28:34;;;;;;;1999.90;999.90;;;;;;;-2.41;92.26;99926.83;1806577;77;21092;-68
2021/01/15 02:31:15;;;;;;;1999.90;999.90;;;;;;;-2.42;92.01;99933.84;1813009;78;21534;-69
2021/01/15 02:34:39;;;;;;;1999.90;999.90;;;;;;;-2.53;92.18;99931.44;1860883;76;28604;-67
2021/01/15 02:37:41;;;;;;;1999.90;999.90;;;;;;;-2.61;92.42;99926.39;1835911;77;20987;-67
2021/01/15 02:40:33;;;;;;;1999.90;999.90;;;;;;;-2.60;92.57;99937.52;1782373;78;22307;-67
2021/01/15 02:43:02;;;;;;;1999.90;999.90;;;;;;;-2.62;92.59;99943.70;1787273;78;20917;-68
2021/01/15 02:45:30;;;;;;;1999.90;999.90;;;;;;;-2.63;92.65;99950.19;1789438;80;21649;-69
2021/01/15 02:48:05;;;;;;;1999.90;999.90;;;;;;;-2.65;92.71;99946.89;1772255;80;20987;-69
2021/01/15 02:50:33;;;;;;;1999.90;999.90;;;;;;;-2.62;92.89;99948.59;1784380;80;21131;-68
2021/01/15 02:53:01;;;;;;;1999.90;999.90;;;;;;;-2.57;92.93;99944.34;1777079;80;22327;-67
2021/01/15 02:55:29;;;;;;;1999.90;999.90;;;;;;;-2.53;92.91;99940.10;1777627;80;20998;-67
2021/01/15 02:57:57;;;;;;;1999.90;999.90;;;;;;;-2.49;92.83;99944.81;1782333;80;21547;-68
2021/01/15 03:00:26;;;;;;;1999.90;999.90;;;;;;;-2.47;92.72;99945.92;1769506;79;21110;-67
2021/01/15 03:03:32;;;;;;;1999.90;999.90;;;;;;;-2.48;92.65;99943.74;1763947;81;21002;-68
2021/01/15 03:06:22;;;;;;;1999.90;999.90;;;;;;;-2.46;92.57;99951.64;1868870;75;28670;-70
2021/01/15 03:08:50;;;;;;;1999.90;999.90;;;;;;;-2.56;92.51;99950.88;1791261;79;20980;-70
2021/01/15 03:11:17;;;;;;;1999.90;999.90;;;;;;;-2.65;92.63;99967.20;1772134;80;21319;-70
2021/01/15 03:13:45;;;;;;;1999.90;999.90;;;;;;;-2.74;92.79;99978.10;1768489;81;20988;-69
2021/01/15 03:16:14;;;;;;;1999.90;999.90;;;;;;;-2.78;93.10;99979.63;1768984;80;20972;-68
2021/01/15 03:18:42;;;;;;;1999.90;999.90;;;;;;;-2.80;93.34;99977.16;1767982;81;21004;-71
2021/01/15 03:21:10;;;;;;;1999.90;999.90;;;;;;;-2.79;93.48;99961.20;1768881;81;20937;-69
2021/01/15 03:23:37;;;;;;;1999.90;999.90;;;;;;;-2.75;93.67;99962.37;1736669;81;21032;-67
2021/01/15 03:26:05;;;;;;;1999.90;999.90;;;;;;;-2.70;93.74;99953.55;1765095;81;21139;-69
2021/01/15 03:28:33;;;;;;;1999.90;999.90;;;;;;;-2.65;93.68;99950.95;1767578;80;21012;-69
2021/01/15 03:31:01;;;;;;;1999.90;999.90;;;;;;;-2.62;93.64;99949.13;1769703;81;20929;-69
2021/01/15 03:33:30;;;;;;;1999.90;999.90;;;;;;;-2.60;93.57;99955.95;1766591;81;21590;-67
2021/01/15 03:35:57;;;;;;;1999.90;999.90;;;;;;;-2.56;93.58;99971.20;1769504;81;21225;-67
2021/01/15 03:38:26;;;;;;;1999.90;999.90;;;;;;;-2.55;93.40;99983.69;1767764;80;21147;-69
2021/01/15 03:40:55;;;;;;;1999.90;999.90;;;;;;;-2.58;93.26;99976.03;1773397;80;20981;-68
2021/01/15 03:43:23;;;;;;;1999.90;999.90;;;;;;;-2.61;93.27;99990.88;1777182;80;21145;-68
2021/01/15 03:45:52;;;;;;;1999.90;999.90;;;;;;;-2.62;93.28;99994.64;1773083;80;21138;-69
2021/01/15 03:48:23;;;;;;;1999.90;999.90;;;;;;;-2.61;93.35;99984.10;1776396;80;21211;-68
2021/01/15 03:50:51;;;;;;;1999.90;999.90;;;;;;;-2.57;93.41;99981.75;1772272;80;21586;-67
2021/01/15 03:53:19;;;;;;;1999.90;999.90;;;;;;;-2.54;93.28;99967.73;1769113;80;21051;-68
2021/01/15 03:55:48;;;;;;;1999.90;999.90;;;;;;;-2.54;93.09;99966.38;1773678;79;21084;-69
2021/01/15 03:58:16;;;;;;;1999.90;999.90;;;;;;;-2.54;92.99;99966.90;1766668;80;21109;-68
2021/01/15 04:00:43;;;;;;;1999.90;999.90;;;;;;;-2.55;92.86;99970.67;1773952;79;21837;-67
2021/01/15 04:03:11;;;;;;;1999.90;999.90;;;;;;;-2.57;92.74;99969.55;1770417;80;21000;-69
2021/01/15 04:05:39;;;;;;;1999.90;999.90;;;;;;;-2.55;92.80;99959.30;1781919;80;21083;-67
2021/01/15 04:08:09;;;;;;;1999.90;999.90;;;;;;;-2.51;92.77;99948.81;1733596;81;21113;-67
2021/01/15 04:10:37;;;;;;;1999.90;999.90;;;;;;;-2.51;92.73;99951.52;1793444;78;21116;-68
2021/01/15 04:13:05;;;;;;;1999.90;999.90;;;;;;;-2.50;92.67;99949.93;1771825;80;21372;-67
2021/01/15 04:15:33;;;;;;;1999.90;999.90;;;;;;;-2.47;92.62;99947.28;1770911;80;21131;-66
2021/01/15 04:18:01;;;;;;;1999.90;999.90;;;;;;;-2.47;92.49;99950.81;1793219;79;21134;-68
2021/01/15 04:20:29;;;;;;;1999.90;999.90;;;;;;;-2.47;92.49;99952.16;1783161;80;20961;-68
2021/01/15 04:22:57;;;;;;;1999.90;999.90;;;;;;;-2.46;92.37;99952.46;1793161;79;21238;-67
2021/01/15 04:25:26;;;;;;;1999.90;999.90;;;;;;;-2.45;92.29;99950.04;1758400;81;21578;-67
2021/01/15 04:27:54;;;;;;;1999.90;999.90;;;;;;;-2.45;92.14;99942.45;1777231;80;21135;-67
2021/01/15 04:30:23;;;;;;;1999.90;999.90;;;;;;;-2.45;92.03;99932.95;1782690;80;21671;-67
2021/01/15 04:32:51;;;;;;;1999.90;999.90;;;;;;;-2.44;91.89;99934.08;1755426;80;21130;-67
2021/01/15 04:35:19;;;;;;;1999.90;999.90;;;;;;;-2.44;91.90;99936.78;1777500;80;20961;-68
2021/01/15 04:37:47;;;;;;;1999.90;999.90;;;;;;;-2.43;91.85;99939.79;1754921;80;21375;-67
2021/01/15 04:40:15;;;;;;;1999.90;999.90;;;;;;;-2.49;91.62;99946.16;1747595;80;21823;-68
2021/01/15 04:42:45;;;;;;;1999.90;999.90;;;;;;;-2.54;91.65;99952.82;1758389;81;21661;-68
2021/01/15 04:45:14;;;;;;;1999.90;999.90;;;;;;;-2.57;91.65;99951.94;1782539;80;21555;-68
2021/01/15 04:47:46;;;;;;;1999.90;999.90;;;;;;;-2.57;91.74;99932.98;1779040;80;21132;-67
2021/01/15 04:50:22;;;;;;;1999.90;999.90;;;;;;;-2.53;91.78;99950.94;1824430;76;28253;-67
2021/01/15 04:53:11;;;;;;;1999.90;999.90;;;;;;;-2.59;91.72;99958.13;1782710;78;20968;-67
2021/01/15 04:55:39;;;;;;;1999.90;999.90;;;;;;;-2.61;91.79;99943.47;1671951;84;21447;-67
2021/01/15 04:58:07;;;;;;;1999.90;999.90;;;;;;;-2.60;91.79;99953.24;1623029;84;21047;-67
2021/01/15 05:00:36;;;;;;;1999.90;999.90;;;;;;;-2.64;91.61;99967.50;1634222;84;21035;-69
2021/01/15 05:03:04;;;;;;;1999.90;999.90;;;;;;;-2.67;91.71;99963.37;1676629;84;20968;-67
2021/01/15 05:05:32;;;;;;;1999.90;999.90;;;;;;;-2.68;91.71;99968.50;1668942;84;21034;-68
2021/01/15 05:08:16;;;;;;;1999.90;999.90;;;;;;;-2.74;91.66;99971.33;1650045;84;21304;-67
2021/01/15 05:10:51;;;;;;;1999.90;999.90;;;;;;;-2.70;91.89;99969.27;1871544;75;28762;-68
2021/01/15 05:13:19;;;;;;;1999.90;999.90;;;;;;;-2.71;92.05;99969.50;1800232;78;20984;-69
2021/01/15 05:15:50;;;;;;;1999.90;999.90;;;;;;;-2.67;92.17;99970.68;1803122;78;20984;-70
2021/01/15 05:18:19;;;;;;;1999.90;999.90;;;;;;;-2.64;92.13;99979.16;1804159;78;21291;-70
2021/01/15 05:20:47;;;;;;;1999.90;999.90;;;;;;;-2.64;92.05;99983.75;1770710;79;21014;-70
2021/01/15 05:23:16;;;;;;;1999.90;999.90;;;;;;;-2.64;92.05;99983.22;1789660;80;21115;-69
2021/01/15 05:25:45;;;;;;;1999.90;999.90;;;;;;;-2.65;92.00;99980.22;1772095;80;20984;-70
2021/01/15 05:28:21;;;;;;;1999.90;999.90;;;;;;;-2.66;91.95;99985.87;1775790;78;21452;-69
2021/01/15 05:30:57;;;;;;;1999.90;999.90;;;;;;;-2.66;91.96;99992.11;1768073;78;21610;-69
2021/01/15 05:33:27;;;;;;;1999.90;999.90;;;;;;;-2.67;91.97;99994.53;1789883;78;21610;-69
2021/01/15 05:35:55;;;;;;;1999.90;999.90;;;;;;;-2.73;92.02;99993.29;1787227;78;21581;-70
2021/01/15 05:38:23;;;;;;;1999.90;999.90;;;;;;;-2.76;92.22;99989.17;1789693;78;21135;-70
2021/01/15 05:40:58;;;;;;;1999.90;999.90;;;;;;;-2.73;92.36;99991.94;1801580;78;22253;-70
2021/01/15 05:43:33;;;;;;;1999.90;999.90;;;;;;;-2.72;92.49;99990.34;1811177;78;20989;-69
2021/01/15 05:46:08;;;;;;;1999.90;999.90;;;;;;;-2.67;92.60;99992.35;1787845;78;21550;-70
2021/01/15 05:48:41;;;;;;;1999.90;999.90;;;;;;;-2.64;92.59;99981.87;1807034;78;20961;-69
2021/01/15 05:51:29;;;;;;;1999.90;999.90;;;;;;;-2.62;92.57;99977.03;1786565;80;21000;-70
2021/01/15 05:53:57;;;;;;;1999.90;999.90;;;;;;;-2.59;92.58;99971.67;1808975;78;22247;-70
2021/01/15 05:56:26;;;;;;;1999.90;999.90;;;;;;;-2.57;92.47;99961.42;1808190;78;21136;-70
2021/01/15 05:59:04;;;;;;;1999.90;999.90;;;;;;;-2.54;92.51;99955.53;1808033;78;21544;-70
2021/01/15 06:02:00;;;;;;;1999.90;999.90;;;;;;;-2.53;92.23;99950.41;1802854;78;21613;-69
2021/01/15 06:04:35;;;;;;;1999.90;999.90;;;;;;;-2.54;92.11;99954.70;1783222;78;20960;-70
2021/01/15 06:07:14;;;;;;;1999.90;999.90;;;;;;;-2.57;92.08;99972.27;1783758;78;21366;-70
2021/01/15 06:09:43;;;;;;;1999.90;999.90;;;;;;;-2.57;92.01;99973.62;1770659;79;20971;-70
2021/01/15 06:12:16;;;;;;;1999.90;999.90;;;;;;;-2.58;91.87;99979.27;1815544;78;20995;-70
2021/01/15 06:17:26;;;;;;;1999.90;999.90;;;;;;;-2.51;91.89;99988.10;1885924;75;28278;-69
2021/01/15 06:20:03;;;;;;;1999.90;999.90;;;;;;;-2.56;91.69;99992.87;1835183;77;21248;-69
2021/01/15 06:22:45;;;;;;;1999.90;999.90;;;;;;;-2.58;91.58;99994.17;1836880;77;21570;-69
2021/01/15 06:25:30;;;;;;;1999.90;999.90;;;;;;;-2.57;91.62;99992.58;1832019;77;20964;-69
2021/01/15 06:28:01;;;;;;;1999.90;999.90;;;;;;;-2.57;91.34;99999.89;1846981;77;21078;-69
2021/01/15 06:30:34;;;;;;;1999.90;999.90;;;;;;;-2.62;91.29;99997.89;1772062;80;20945;-69
2021/01/15 06:33:14;;;;;;;1999.90;999.90;;;;;;;-2.60;91.29;99996.59;1799840;78;21122;-69
2021/01/15 06:35:43;;;;;;;1999.90;999.90;;;;;;;-2.58;91.12;100005.84;1786106;79;22267;-70
2021/01/15 06:38:18;;;;;;;1999.90;999.90;;;;;;;-2.60;90.98;100013.37;1792151;78;21001;-70
2021/01/15 06:40:49;;;;;;;1999.90;999.90;;;;;;;-2.61;90.91;100022.56;1777772;80;21000;-70
2021/01/15 06:43:27;;;;;;;1999.90;999.90;;;;;;;-2.63;90.83;100032.81;1796818;78;21103;-69
2021/01/15 06:45:59;;;;;;;1999.90;999.90;;;;;;;-2.64;90.89;100038.75;1785340;79;21207;-70
2021/01/15 06:48:35;;;;;;;1999.90;999.90;;;;;;;-2.66;90.96;100049.53;1798991;78;22147;-70
2021/01/15 06:51:07;;;;;;;1999.90;999.90;;;;;;;-2.71;91.08;100050.23;1783245;79;20966;-70
2021/01/15 06:56:18;;;;;;;1999.90;999.90;;;;;;;-2.69;91.53;100047.29;1820304;76;28126;-68
2021/01/15 06:58:46;;;;;;;1999.90;999.90;;;;;;;-2.69;91.55;100054.06;1784190;79;21004;-70
2021/01/15 07:01:25;;;;;;;1999.90;999.90;;;;;;;-2.69;91.58;100050.00;1756355;79;21196;-69
2021/01/15 07:04:27;;;;;;;1999.90;999.90;;;;;;;-2.70;91.58;100050.53;1779902;79;20984;-69
2021/01/15 07:07:15;;;;;;;1999.90;999.90;;;;;;;-2.72;91.50;100058.06;1776585;79;20964;-69
2021/01/15 07:09:47;;;;;;;1999.90;999.90;;;;;;;-2.73;91.55;100046.94;1780537;79;21006;-70
2021/01/15 07:12:21;;;;;;;1999.90;999.90;;;;;;;-2.73;91.58;100044.75;1784770;79;20949;-69
2021/01/15 07:14:58;;;;;;;1999.90;999.90;;;;;;;-2.71;91.56;100057.00;1793949;79;21481;-70
2021/01/15 07:17:35;;;;;;;1999.90;999.90;;;;;;;-2.69;91.54;100052.70;1799565;79;20973;-68
2021/01/15 07:20:15;;;;;;;1999.90;999.90;;;;;;;-2.64;91.57;100053.66;1832251;76;29069;-71
2021/01/15 07:22:59;;;;;;;1999.90;999.90;;;;;;;-2.68;91.50;100070.08;1787920;79;21511;-69
2021/01/15 07:25:27;;;;;;;1999.90;999.90;;;;;;;-2.69;91.38;100073.02;1745513;80;21529;-68
2021/01/15 07:27:57;;;;;;;1999.90;999.90;;;;;;;-2.70;91.33;100066.78;1783601;79;21550;-69
2021/01/15 07:30:28;;;;;;;1999.90;999.90;;;;;;;-2.70;91.32;100065.95;1783829;79;20998;-69
2021/01/15 07:32:57;;;;;;;1999.90;999.90;;;;;;;-2.70;91.40;100068.66;1732202;79;21555;-69
2021/01/15 07:35:27;;;;;;;1999.90;999.90;;;;;;;-2.71;91.56;100062.42;1782596;80;20955;-69
2021/01/15 07:38:12;;;;;;;1999.90;999.90;;;;;;;-2.71;91.72;100070.55;1782762;80;21429;-68
2021/01/15 07:40:40;;;;;;;1999.90;999.90;;;;;;;-2.67;91.82;100075.80;1781404;80;21137;-68
2021/01/15 07:43:30;;;;;;;1999.90;999.90;;;;;;;-2.66;91.87;100073.38;1783331;80;21127;-69
2021/01/15 07:46:01;;;;;;;1999.90;999.90;;;;;;;-2.66;91.90;100072.03;1782835;80;21107;-69
2021/01/15 07:48:29;;;;;;;1999.90;999.90;;;;;;;-2.64;91.91;100083.45;1783092;80;21473;-68
2021/01/15 07:50:57;;;;;;;1999.90;999.90;;;;;;;-2.64;91.86;100086.16;1783552;79;21247;-68
2021/01/15 07:53:40;;;;;;;1999.90;999.90;;;;;;;-2.63;91.88;100090.52;1783540;80;21579;-69
2021/01/15 07:56:10;;;;;;;1999.90;999.90;;;;;;;-2.57;92.02;100098.78;1783029;79;21528;-68
2021/01/15 07:58:45;;;;;;;1999.90;999.90;;;;;;;-2.56;91.95;100091.77;1781054;80;21399;-67
2021/01/15 08:01:16;;;;;;;1999.90;999.90;;;;;;;-2.55;91.91;100094.77;1784011;79;20976;-69
2021/01/15 08:03:56;;;;;;;1999.90;999.90;;;;;;;-2.54;91.92;100096.42;1784097;79;21374;-69
2021/01/15 08:06:26;;;;;;;1999.90;999.90;;;;;;;-2.53;91.94;100094.54;1781255;79;20988;-68
2021/01/15 08:09:06;;;;;;;1999.90;999.90;;;;;;;-2.51;91.99;100103.26;1783267;80;20982;-69
2021/01/15 08:11:35;;;;;;;1999.90;999.90;;;;;;;-2.50;92.04;100107.09;1782369;80;20945;-68
2021/01/15 08:14:17;;;;;;;1999.90;999.90;;;;;;;-2.48;92.02;100106.33;1781851;80;21509;-68
2021/01/15 08:16:45;;;;;;;1999.90;999.90;;;;;;;-2.47;91.96;100111.22;1778489;79;21574;-69
2021/01/15 08:19:15;;;;;;;1999.90;999.90;;;;;;;-2.45;92.04;100111.80;1789850;79;20941;-68
2021/01/15 08:21:45;;;;;;;1999.90;999.90;;;;;;;-2.41;92.17;100108.39;1793799;79;21063;-68
2021/01/15 08:24:13;;;;;;;1999.90;999.90;;;;;;;-2.36;92.17;100096.31;1796317;79;20995;-68
2021/01/15 08:26:56;;;;;;;1999.90;999.90;;;;;;;-2.31;92.20;100096.44;1788415;78;21110;-69
2021/01/15 08:29:26;;;;;;;1999.90;999.90;;;;;;;-2.28;92.08;100101.92;1796852;78;21345;-69
2021/01/15 08:31:56;;;;;;;1999.90;999.90;;;;;;;-2.28;92.04;100103.27;1792410;79;20976;-68
2021/01/15 08:34:32;;;;;;;1999.90;999.90;;;;;;;-2.24;92.11;100104.98;1796620;79;21177;-70
2021/01/15 08:37:01;;;;;;;1999.90;999.90;;;;;;;-2.22;92.10;100109.11;1792950;78;21016;-68
2021/01/15 08:39:31;;;;;;;1999.90;999.90;;;;;;;-2.22;92.09;100107.75;1795505;79;21432;-68
2021/01/15 08:42:01;;;;;;;1999.90;999.90;;;;;;;-2.25;92.22;100107.40;1795098;78;21338;-69
2021/01/15 08:44:34;;;;;;;1999.90;999.90;;;;;;;-2.25;92.41;100107.40;1795779;79;20960;-68
2021/01/15 08:47:05;;;;;;;1999.90;999.90;;;;;;;-2.23;92.57;100102.56;1795369;79;21028;-68
2021/01/15 08:49:53;;;;;;;1999.90;999.90;;;;;;;-2.18;92.66;100100.80;1825523;76;27652;-70
2021/01/15 08:52:23;;;;;;;1999.90;999.90;;;;;;;-2.25;92.68;100101.45;1788592;79;20961;-68
2021/01/15 08:54:51;;;;;;;1999.90;999.90;;;;;;;-2.29;92.76;100101.63;1805325;79;21652;-69
2021/01/15 08:57:20;;;;;;;1999.90;999.90;;;;;;;-2.31;93.03;100094.26;1801695;79;21111;-68
2021/01/15 08:59:48;;;;;;;1999.90;999.90;;;;;;;-2.33;93.15;100090.95;1793020;79;20961;-67
2021/01/15 09:02:16;;;;;;;1999.90;999.90;;;;;;;-2.33;93.34;100090.42;1791087;79;20961;-67
2021/01/15 09:04:44;;;;;;;1999.90;999.90;;;;;;;-2.29;93.51;100088.07;1747226;79;21119;-68
2021/01/15 09:07:12;;;;;;;1999.90;999.90;;;;;;;-2.22;93.67;100087.95;1800071;79;21846;-67
2021/01/15 09:09:41;;;;;;;1999.90;999.90;;;;;;;-2.15;93.77;100087.30;1788546;79;21016;-70
2021/01/15 09:12:10;;;;;;;1999.90;999.90;;;;;;;-2.10;93.69;100088.23;1789181;79;20944;-70
2021/01/15 09:14:39;;;;;;;1999.90;999.90;;;;;;;-2.07;93.53;100088.30;1794557;78;21051;-71
2021/01/15 09:17:07;;;;;;;1999.90;999.90;;;;;;;-2.06;93.56;100084.52;1793055;79;20944;-68
2021/01/15 09:19:36;;;;;;;1999.90;999.90;;;;;;;-2.04;93.68;100079.69;1795242;78;22111;-68
2021/01/15 09:22:08;;;;;;;1999.90;999.90;;;;;;;-2.01;93.75;100084.63;1793817;79;21169;-68
2021/01/15 09:24:36;;;;;;;1999.90;999.90;;;;;;;-1.98;93.71;100089.59;1792903;79;21119;-68
2021/01/15 09:27:07;;;;;;;1999.90;999.90;;;;;;;-1.95;93.61;100079.08;1787326;79;21039;-69
2021/01/15 09:29:35;;;;;;;1999.90;999.90;;;;;;;-1.96;93.50;100070.66;1804829;79;21153;-68
2021/01/15 09:32:04;;;;;;;1999.90;999.90;;;;;;;-1.92;93.67;100060.16;1786513;79;21191;-69
2021/01/15 09:34:33;;;;;;;1999.90;999.90;;;;;;;-1.86;93.73;100064.63;1805587;79;21508;-68
2021/01/15 09:37:01;;;;;;;1999.90;999.90;;;;;;;-1.79;93.69;100065.84;1793338;79;21139;-69
2021/01/15 09:39:29;;;;;;;1999.90;999.90;;;;;;;-1.78;93.50;100062.89;1793239;79;20980;-68
2021/01/15 09:41:58;;;;;;;1999.90;999.90;;;;;;;-1.74;93.39;100064.59;1793226;79;21091;-68
2021/01/15 09:44:28;;;;;;;1999.90;999.90;;;;;;;-1.71;93.31;100065.47;1793330;79;21322;-68
2021/01/15 09:47:00;;;;;;;1999.90;999.90;;;;;;;-1.68;93.20;100066.34;1794921;79;21047;-68
2021/01/15 09:49:33;;;;;;;1999.90;999.90;;;;;;;-1.63;92.99;100069.16;1798344;78;21079;-68
2021/01/15 09:54:40;;;;;;;1999.90;999.90;;;;;;;-1.48;92.89;100065.40;1866445;76;22309;-68
2021/01/15 09:57:08;;;;;;;1999.90;999.90;;;;;;;-1.45;92.86;100063.55;1838108;77;20952;-69
2021/01/15 09:59:35;;;;;;;1999.90;999.90;;;;;;;-1.40;92.55;100058.76;1825645;77;21857;-70
2021/01/15 10:02:03;;;;;;;1999.90;999.90;;;;;;;-1.44;92.06;100058.42;1825021;78;21087;-69
2021/01/15 10:04:32;;;;;;;1999.90;999.90;;;;;;;-1.47;91.84;100049.94;1772520;78;21504;-69
2021/01/15 10:07:00;;;;;;;1999.90;999.90;;;;;;;-1.50;91.66;100053.95;1756742;80;21560;-69
2021/01/15 10:09:28;;;;;;;1999.90;999.90;;;;;;;-1.50;91.74;100055.84;1770897;78;20911;-69
2021/01/15 10:11:56;;;;;;;1999.90;999.90;;;;;;;-1.45;91.79;100059.48;1787257;80;21392;-69
2021/01/15 10:14:26;;;;;;;1999.90;999.90;;;;;;;-1.41;91.49;100046.25;1765352;80;21005;-70
2021/01/15 10:16:53;;;;;;;1999.90;999.90;;;;;;;-1.35;91.51;100046.11;1770883;80;21018;-70
2021/01/15 10:19:21;;;;;;;1999.90;999.90;;;;;;;-1.30;91.44;100040.77;1786746;80;21121;-70
2021/01/15 10:21:51;;;;;;;1999.90;999.90;;;;;;;-1.23;91.48;100037.08;1775305;80;21105;-70
2021/01/15 10:24:20;;;;;;;1999.90;999.90;;;;;;;-1.16;91.36;100035.04;1727882;80;21383;-70
2021/01/15 10:26:48;;;;;;;1999.90;999.90;;;;;;;-1.15;91.04;100034.80;1781634;80;21120;-70
2021/01/15 10:29:16;;;;;;;1999.90;999.90;;;;;;;-1.14;90.99;100033.73;1783478;78;21002;-70
2021/01/15 10:34:30;;;;;;;1999.90;999.90;;;;;;;-1.03;90.61;100028.77;1868479;75;22745;-68
2021/01/15 10:36:58;;;;;;;1999.90;999.90;;;;;;;-1.04;90.43;100028.47;1844479;77;20953;-68
2021/01/15 10:39:26;;;;;;;1999.90;999.90;;;;;;;-0.97;90.48;100033.21;1777226;80;21422;-68
2021/01/15 10:41:55;;;;;;;1999.90;999.90;;;;;;;-0.89;90.26;100036.59;1754705;80;20985;-68
2021/01/15 10:44:26;;;;;;;1999.90;999.90;;;;;;;-0.82;89.99;100039.44;1765904;80;21596;-68
2021/01/15 10:46:53;;;;;;;1999.90;999.90;;;;;;;-0.81;89.14;100038.91;1751503;81;20971;-68
2021/01/15 10:49:23;;;;;;;1999.90;999.90;;;;;;;-0.85;88.71;100036.39;1758781;80;21489;-68
2021/01/15 10:54:29;;;;;;;1999.90;999.90;;;;;;;-0.85;88.89;100021.45;1858988;76;23143;-71
2021/01/15 10:56:57;;;;;;;1999.90;999.90;;;;;;;-0.82;89.07;100018.23;1843149;77;20948;-70
2021/01/15 10:59:25;;;;;;;1999.90;999.90;;;;;;;-0.78;88.71;100012.59;1787047;78;21198;-70
2021/01/15 11:01:53;;;;;;;1999.90;999.90;;;;;;;-0.74;88.71;100011.03;1761088;80;21017;-69
2021/01/15 11:04:22;;;;;;;1999.90;999.90;;;;;;;-0.66;88.60;100011.97;1777540;80;21051;-69
2021/01/15 11:06:54;;;;;;;1999.90;999.90;;;;;;;-0.58;88.49;100008.02;1780133;80;20967;-69
2021/01/15 11:09:24;;;;;;;1999.90;999.90;;;;;;;-0.55;88.04;100012.95;1779044;79;20971;-69
2021/01/15 11:11:53;;;;;;;1999.90;999.90;;;;;;;-0.58;87.11;100018.89;1780063;80;21348;-69
2021/01/15 11:14:22;;;;;;;1999.90;999.90;;;;;;;-0.66;86.98;100016.87;1775425;80;21010;-69
2021/01/15 11:16:50;;;;;;;1999.90;999.90;;;;;;;-0.67;87.14;100004.89;1780718;79;20983;-69
2021/01/15 11:19:18;;;;;;;1999.90;999.90;;;;;;;-0.68;86.81;100004.60;1776323;79;21561;-70
2021/01/15 11:21:46;;;;;;;1999.90;999.90;;;;;;;-0.71;86.96;100003.74;1779186;80;21113;-69
2021/01/15 11:24:14;;;;;;;1999.90;999.90;;;;;;;-0.65;87.17;100006.29;1779134;80;21589;-69
2021/01/15 11:26:42;;;;;;;1999.90;999.90;;;;;;;-0.62;87.14;100002.25;1780783;80;20987;-69
2021/01/15 11:29:12;;;;;;;1999.90;999.90;;;;;;;-0.58;86.90;100004.77;1780257;80;21109;-70